sensor_id;sensor_type;location;lat;lon;timestamp;P1;durP1;ratioP1;P2;durP2;ratioP2
74612;SDS011;63119;51.788;8.824;2023-07-29T00:01:03;4.20;;;1.70;;
74612;SDS011;63119;51.788;8.824;2023-07-29T00:03:28;3.53;;;1.97;;
74612;SDS011;63119;51.788;8.824;2023-07-29T00:05:55;4.55;;;2.47;;
74612;SDS011;63119;51.788;8.824;2023-07-29T00:08:20;3.20;;;1.48;;
74612;SDS011;63119;51.788;8.824;2023-07-29T00:10:46;2.80;;;1.83;;
74612;SDS011;63119;51.788;8.824;2023-07-29T00:13:11;2.73;;;1.90;;
74612;SDS011;63119;51.788;8.824;2023-07-29T00:15:36;2.23;;;1.70;;
74612;SDS011;63119;51.788;8.824;2023-07-29T00:18:02;2.87;;;1.70;;
74612;SDS011;63119;51.788;8.824;2023-07-29T00:20:27;3.42;;;1.80;;
74612;SDS011;63119;51.788;8.824;2023-07-29T00:22:52;2.93;;;2.00;;
74612;SDS011;63119;51.788;8.824;2023-07-29T00:25:22;2.95;;;1.65;;
74612;SDS011;63119;51.788;8.824;2023-07-29T00:27:48;4.30;;;1.73;;
74612;SDS011;63119;51.788;8.824;2023-07-29T00:30:13;6.47;;;1.80;;
74612;SDS011;63119;51.788;8.824;2023-07-29T00:32:38;4.47;;;2.00;;
74612;SDS011;63119;51.788;8.824;2023-07-29T00:35:04;4.53;;;1.73;;
74612;SDS011;63119;51.788;8.824;2023-07-29T00:37:30;3.22;;;1.73;;
74612;SDS011;63119;51.788;8.824;2023-07-29T00:39:55;3.35;;;2.05;;
74612;SDS011;63119;51.788;8.824;2023-07-29T00:42:21;4.38;;;2.05;;
74612;SDS011;63119;51.788;8.824;2023-07-29T00:44:46;3.17;;;1.83;;
74612;SDS011;63119;51.788;8.824;2023-07-29T00:47:11;3.83;;;1.80;;
74612;SDS011;63119;51.788;8.824;2023-07-29T00:49:39;4.68;;;2.08;;
74612;SDS011;63119;51.788;8.824;2023-07-29T00:52:05;2.42;;;1.67;;
74612;SDS011;63119;51.788;8.824;2023-07-29T00:54:30;3.65;;;1.80;;
74612;SDS011;63119;51.788;8.824;2023-07-29T00:56:56;3.00;;;1.70;;
74612;SDS011;63119;51.788;8.824;2023-07-29T00:59:21;2.35;;;1.75;;
74612;SDS011;63119;51.788;8.824;2023-07-29T01:01:47;2.58;;;1.70;;
74612;SDS011;63119;51.788;8.824;2023-07-29T01:04:13;2.30;;;1.60;;
74612;SDS011;63119;51.788;8.824;2023-07-29T01:06:41;3.23;;;2.03;;
74612;SDS011;63119;51.788;8.824;2023-07-29T01:12:11;2.92;;;1.92;;
74612;SDS011;63119;51.788;8.824;2023-07-29T01:17:23;2.83;;;1.85;;
74612;SDS011;63119;51.788;8.824;2023-07-29T01:22:26;2.80;;;2.03;;
74612;SDS011;63119;51.788;8.824;2023-07-29T01:24:52;4.03;;;1.92;;
74612;SDS011;63119;51.788;8.824;2023-07-29T01:27:18;2.65;;;1.83;;
74612;SDS011;63119;51.788;8.824;2023-07-29T01:29:43;3.10;;;2.10;;
74612;SDS011;63119;51.788;8.824;2023-07-29T01:32:12;4.03;;;2.00;;
74612;SDS011;63119;51.788;8.824;2023-07-29T01:34:47;3.22;;;2.00;;
74612;SDS011;63119;51.788;8.824;2023-07-29T01:37:19;3.90;;;1.70;;
74612;SDS011;63119;51.788;8.824;2023-07-29T01:39:49;8.05;;;1.95;;
74612;SDS011;63119;51.788;8.824;2023-07-29T01:42:16;2.85;;;1.65;;
74612;SDS011;63119;51.788;8.824;2023-07-29T01:44:41;3.08;;;1.85;;
74612;SDS011;63119;51.788;8.824;2023-07-29T01:47:07;3.83;;;1.90;;
74612;SDS011;63119;51.788;8.824;2023-07-29T01:49:33;4.45;;;1.77;;
74612;SDS011;63119;51.788;8.824;2023-07-29T01:51:58;2.23;;;1.60;;
74612;SDS011;63119;51.788;8.824;2023-07-29T01:54:24;2.67;;;1.85;;
74612;SDS011;63119;51.788;8.824;2023-07-29T01:56:49;3.97;;;2.53;;
74612;SDS011;63119;51.788;8.824;2023-07-29T01:59:16;5.68;;;1.83;;
74612;SDS011;63119;51.788;8.824;2023-07-29T02:01:41;3.38;;;2.28;;
74612;SDS011;63119;51.788;8.824;2023-07-29T02:04:07;2.40;;;1.77;;
74612;SDS011;63119;51.788;8.824;2023-07-29T02:06:32;2.73;;;1.90;;
74612;SDS011;63119;51.788;8.824;2023-07-29T02:08:58;2.90;;;1.73;;
74612;SDS011;63119;51.788;8.824;2023-07-29T02:11:23;2.93;;;1.97;;
74612;SDS011;63119;51.788;8.824;2023-07-29T02:13:52;4.03;;;2.08;;
74612;SDS011;63119;51.788;8.824;2023-07-29T02:16:21;2.30;;;1.73;;
74612;SDS011;63119;51.788;8.824;2023-07-29T02:18:47;2.88;;;1.95;;
74612;SDS011;63119;51.788;8.824;2023-07-29T02:21:12;4.47;;;1.80;;
74612;SDS011;63119;51.788;8.824;2023-07-29T02:23:38;2.23;;;1.53;;
74612;SDS011;63119;51.788;8.824;2023-07-29T02:26:03;3.90;;;1.70;;
74612;SDS011;63119;51.788;8.824;2023-07-29T02:28:28;2.97;;;1.47;;
74612;SDS011;63119;51.788;8.824;2023-07-29T02:31:14;2.57;;;1.70;;
74612;SDS011;63119;51.788;8.824;2023-07-29T02:33:39;3.63;;;1.98;;
74612;SDS011;63119;51.788;8.824;2023-07-29T02:36:05;3.70;;;1.90;;
74612;SDS011;63119;51.788;8.824;2023-07-29T02:38:30;3.87;;;2.20;;
74612;SDS011;63119;51.788;8.824;2023-07-29T02:40:55;2.53;;;1.63;;
74612;SDS011;63119;51.788;8.824;2023-07-29T02:43:20;4.17;;;2.30;;
74612;SDS011;63119;51.788;8.824;2023-07-29T02:45:46;6.20;;;1.90;;
74612;SDS011;63119;51.788;8.824;2023-07-29T02:48:11;4.50;;;2.13;;
74612;SDS011;63119;51.788;8.824;2023-07-29T02:50:36;5.20;;;1.93;;
74612;SDS011;63119;51.788;8.824;2023-07-29T02:53:01;2.67;;;1.73;;
74612;SDS011;63119;51.788;8.824;2023-07-29T02:55:27;3.03;;;1.70;;
74612;SDS011;63119;51.788;8.824;2023-07-29T02:57:52;4.07;;;1.80;;
74612;SDS011;63119;51.788;8.824;2023-07-29T03:00:17;4.10;;;2.30;;
74612;SDS011;63119;51.788;8.824;2023-07-29T03:02:43;2.73;;;1.87;;
74612;SDS011;63119;51.788;8.824;2023-07-29T03:05:08;2.73;;;1.83;;
74612;SDS011;63119;51.788;8.824;2023-07-29T03:07:33;5.33;;;2.03;;
74612;SDS011;63119;51.788;8.824;2023-07-29T03:09:58;3.60;;;1.87;;
74612;SDS011;63119;51.788;8.824;2023-07-29T03:12:24;3.97;;;1.63;;
74612;SDS011;63119;51.788;8.824;2023-07-29T03:14:49;2.73;;;1.70;;
74612;SDS011;63119;51.788;8.824;2023-07-29T03:17:14;2.20;;;1.70;;
74612;SDS011;63119;51.788;8.824;2023-07-29T03:19:40;4.15;;;2.05;;
74612;SDS011;63119;51.788;8.824;2023-07-29T03:22:05;2.10;;;1.60;;
74612;SDS011;63119;51.788;8.824;2023-07-29T03:24:30;4.03;;;1.73;;
74612;SDS011;63119;51.788;8.824;2023-07-29T03:26:55;2.37;;;1.67;;
74612;SDS011;63119;51.788;8.824;2023-07-29T03:29:20;3.43;;;1.80;;
74612;SDS011;63119;51.788;8.824;2023-07-29T03:31:46;2.30;;;1.50;;
74612;SDS011;63119;51.788;8.824;2023-07-29T03:34:11;2.50;;;1.73;;
74612;SDS011;63119;51.788;8.824;2023-07-29T03:36:37;2.17;;;1.63;;
74612;SDS011;63119;51.788;8.824;2023-07-29T03:39:02;2.90;;;2.00;;
74612;SDS011;63119;51.788;8.824;2023-07-29T03:41:28;3.88;;;1.95;;
74612;SDS011;63119;51.788;8.824;2023-07-29T03:43:54;2.90;;;1.75;;
74612;SDS011;63119;51.788;8.824;2023-07-29T03:46:19;3.17;;;2.00;;
74612;SDS011;63119;51.788;8.824;2023-07-29T03:48:46;2.35;;;1.65;;
74612;SDS011;63119;51.788;8.824;2023-07-29T03:51:12;2.20;;;1.50;;
74612;SDS011;63119;51.788;8.824;2023-07-29T03:53:37;3.43;;;1.70;;
74612;SDS011;63119;51.788;8.824;2023-07-29T03:56:02;2.27;;;1.60;;
74612;SDS011;63119;51.788;8.824;2023-07-29T03:58:28;2.80;;;1.80;;
74612;SDS011;63119;51.788;8.824;2023-07-29T04:00:53;4.13;;;1.90;;
74612;SDS011;63119;51.788;8.824;2023-07-29T04:03:18;7.23;;;2.00;;
74612;SDS011;63119;51.788;8.824;2023-07-29T04:05:44;2.60;;;1.83;;
74612;SDS011;63119;51.788;8.824;2023-07-29T04:08:09;5.15;;;2.10;;
74612;SDS011;63119;51.788;8.824;2023-07-29T04:10:34;5.03;;;2.17;;
74612;SDS011;63119;51.788;8.824;2023-07-29T04:13:00;3.60;;;2.33;;
74612;SDS011;63119;51.788;8.824;2023-07-29T04:15:25;2.58;;;1.80;;
74612;SDS011;63119;51.788;8.824;2023-07-29T04:17:51;2.97;;;2.27;;
74612;SDS011;63119;51.788;8.824;2023-07-29T04:20:16;3.63;;;2.20;;
74612;SDS011;63119;51.788;8.824;2023-07-29T04:22:41;3.13;;;2.10;;
74612;SDS011;63119;51.788;8.824;2023-07-29T04:25:07;3.27;;;2.03;;
74612;SDS011;63119;51.788;8.824;2023-07-29T04:27:32;4.97;;;2.45;;
74612;SDS011;63119;51.788;8.824;2023-07-29T04:29:57;3.80;;;2.23;;
74612;SDS011;63119;51.788;8.824;2023-07-29T04:32:22;4.30;;;2.03;;
74612;SDS011;63119;51.788;8.824;2023-07-29T04:34:48;10.03;;;2.80;;
74612;SDS011;63119;51.788;8.824;2023-07-29T04:37:13;3.33;;;2.00;;
74612;SDS011;63119;51.788;8.824;2023-07-29T04:39:38;4.53;;;2.40;;
74612;SDS011;63119;51.788;8.824;2023-07-29T04:42:04;3.80;;;2.67;;
74612;SDS011;63119;51.788;8.824;2023-07-29T04:44:29;4.32;;;2.67;;
74612;SDS011;63119;51.788;8.824;2023-07-29T04:46:55;4.77;;;2.40;;
74612;SDS011;63119;51.788;8.824;2023-07-29T04:49:20;3.50;;;2.60;;
74612;SDS011;63119;51.788;8.824;2023-07-29T04:51:45;6.60;;;2.60;;
74612;SDS011;63119;51.788;8.824;2023-07-29T04:54:10;4.00;;;2.37;;
74612;SDS011;63119;51.788;8.824;2023-07-29T04:56:36;4.77;;;2.80;;
74612;SDS011;63119;51.788;8.824;2023-07-29T04:59:01;2.83;;;1.90;;
74612;SDS011;63119;51.788;8.824;2023-07-29T05:01:26;5.03;;;2.07;;
74612;SDS011;63119;51.788;8.824;2023-07-29T05:03:51;3.37;;;2.30;;
74612;SDS011;63119;51.788;8.824;2023-07-29T05:06:17;4.90;;;2.20;;
74612;SDS011;63119;51.788;8.824;2023-07-29T05:08:42;4.10;;;2.27;;
74612;SDS011;63119;51.788;8.824;2023-07-29T05:11:07;6.57;;;2.17;;
74612;SDS011;63119;51.788;8.824;2023-07-29T05:13:32;3.30;;;2.20;;
74612;SDS011;63119;51.788;8.824;2023-07-29T05:15:58;3.17;;;1.70;;
74612;SDS011;63119;51.788;8.824;2023-07-29T05:18:23;3.20;;;2.50;;
74612;SDS011;63119;51.788;8.824;2023-07-29T05:20:48;3.13;;;2.03;;
74612;SDS011;63119;51.788;8.824;2023-07-29T05:23:14;3.40;;;2.00;;
74612;SDS011;63119;51.788;8.824;2023-07-29T05:25:39;10.07;;;2.27;;
74612;SDS011;63119;51.788;8.824;2023-07-29T05:28:04;3.75;;;2.40;;
74612;SDS011;63119;51.788;8.824;2023-07-29T05:30:30;2.88;;;1.70;;
74612;SDS011;63119;51.788;8.824;2023-07-29T05:32:57;4.13;;;1.70;;
74612;SDS011;63119;51.788;8.824;2023-07-29T05:35:23;5.15;;;2.38;;
74612;SDS011;63119;51.788;8.824;2023-07-29T05:37:48;4.03;;;2.30;;
74612;SDS011;63119;51.788;8.824;2023-07-29T05:40:14;2.40;;;1.60;;
74612;SDS011;63119;51.788;8.824;2023-07-29T05:42:39;2.92;;;1.83;;
74612;SDS011;63119;51.788;8.824;2023-07-29T05:45:04;4.27;;;1.93;;
74612;SDS011;63119;51.788;8.824;2023-07-29T05:47:31;4.07;;;2.22;;
74612;SDS011;63119;51.788;8.824;2023-07-29T05:49:56;3.40;;;1.83;;
74612;SDS011;63119;51.788;8.824;2023-07-29T05:52:21;3.17;;;1.97;;
74612;SDS011;63119;51.788;8.824;2023-07-29T05:54:47;4.07;;;1.83;;
74612;SDS011;63119;51.788;8.824;2023-07-29T05:57:12;4.07;;;2.10;;
74612;SDS011;63119;51.788;8.824;2023-07-29T05:59:37;2.80;;;1.93;;
74612;SDS011;63119;51.788;8.824;2023-07-29T06:02:03;4.60;;;1.90;;
74612;SDS011;63119;51.788;8.824;2023-07-29T06:04:29;3.42;;;1.50;;
74612;SDS011;63119;51.788;8.824;2023-07-29T06:06:54;3.07;;;1.50;;
74612;SDS011;63119;51.788;8.824;2023-07-29T06:09:20;3.20;;;2.20;;
74612;SDS011;63119;51.788;8.824;2023-07-29T06:11:50;5.28;;;2.13;;
74612;SDS011;63119;51.788;8.824;2023-07-29T06:14:15;3.75;;;2.08;;
74612;SDS011;63119;51.788;8.824;2023-07-29T06:16:41;2.55;;;1.48;;
74612;SDS011;63119;51.788;8.824;2023-07-29T06:19:06;3.13;;;1.80;;
74612;SDS011;63119;51.788;8.824;2023-07-29T06:21:33;2.20;;;1.30;;
74612;SDS011;63119;51.788;8.824;2023-07-29T06:23:59;2.85;;;1.20;;
74612;SDS011;63119;51.788;8.824;2023-07-29T06:26:24;1.87;;;1.20;;
74612;SDS011;63119;51.788;8.824;2023-07-29T06:28:49;2.17;;;1.37;;
74612;SDS011;63119;51.788;8.824;2023-07-29T06:31:15;1.73;;;1.40;;
74612;SDS011;63119;51.788;8.824;2023-07-29T06:33:40;2.03;;;1.50;;
74612;SDS011;63119;51.788;8.824;2023-07-29T06:36:05;3.63;;;1.40;;
74612;SDS011;63119;51.788;8.824;2023-07-29T06:38:30;2.23;;;1.57;;
74612;SDS011;63119;51.788;8.824;2023-07-29T06:40:56;2.05;;;1.30;;
74612;SDS011;63119;51.788;8.824;2023-07-29T06:43:21;2.37;;;1.23;;
74612;SDS011;63119;51.788;8.824;2023-07-29T06:45:46;2.87;;;1.60;;
74612;SDS011;63119;51.788;8.824;2023-07-29T06:48:12;4.60;;;1.50;;
74612;SDS011;63119;51.788;8.824;2023-07-29T06:50:37;2.20;;;1.43;;
74612;SDS011;63119;51.788;8.824;2023-07-29T06:53:02;4.07;;;1.23;;
74612;SDS011;63119;51.788;8.824;2023-07-29T06:55:28;2.92;;;1.70;;
74612;SDS011;63119;51.788;8.824;2023-07-29T06:57:53;3.10;;;1.30;;
74612;SDS011;63119;51.788;8.824;2023-07-29T07:00:18;3.00;;;1.47;;
74612;SDS011;63119;51.788;8.824;2023-07-29T07:02:44;2.20;;;1.58;;
74612;SDS011;63119;51.788;8.824;2023-07-29T07:05:09;2.67;;;1.50;;
74612;SDS011;63119;51.788;8.824;2023-07-29T07:07:34;2.33;;;1.43;;
74612;SDS011;63119;51.788;8.824;2023-07-29T07:10:00;3.30;;;1.80;;
74612;SDS011;63119;51.788;8.824;2023-07-29T07:12:25;2.60;;;1.60;;
74612;SDS011;63119;51.788;8.824;2023-07-29T07:14:50;2.70;;;1.80;;
74612;SDS011;63119;51.788;8.824;2023-07-29T07:17:15;3.33;;;2.23;;
74612;SDS011;63119;51.788;8.824;2023-07-29T07:19:41;2.83;;;2.00;;
74612;SDS011;63119;51.788;8.824;2023-07-29T07:22:06;3.08;;;1.90;;
74612;SDS011;63119;51.788;8.824;2023-07-29T07:24:31;3.65;;;2.00;;
74612;SDS011;63119;51.788;8.824;2023-07-29T07:26:57;2.70;;;1.87;;
74612;SDS011;63119;51.788;8.824;2023-07-29T07:29:22;3.25;;;2.25;;
74612;SDS011;63119;51.788;8.824;2023-07-29T07:31:52;3.40;;;2.07;;
74612;SDS011;63119;51.788;8.824;2023-07-29T07:34:19;4.65;;;2.13;;
74612;SDS011;63119;51.788;8.824;2023-07-29T07:36:44;4.20;;;2.20;;
74612;SDS011;63119;51.788;8.824;2023-07-29T07:39:10;2.90;;;2.20;;
74612;SDS011;63119;51.788;8.824;2023-07-29T07:41:35;5.50;;;3.70;;
74612;SDS011;63119;51.788;8.824;2023-07-29T07:44:00;6.53;;;3.97;;
74612;SDS011;63119;51.788;8.824;2023-07-29T07:46:25;6.87;;;4.90;;
74612;SDS011;63119;51.788;8.824;2023-07-29T07:48:51;9.87;;;5.60;;
74612;SDS011;63119;51.788;8.824;2023-07-29T07:51:16;12.93;;;6.47;;
74612;SDS011;63119;51.788;8.824;2023-07-29T07:53:41;13.80;;;7.33;;
74612;SDS011;63119;51.788;8.824;2023-07-29T07:56:07;14.02;;;7.65;;
74612;SDS011;63119;51.788;8.824;2023-07-29T07:58:32;16.70;;;8.18;;
74612;SDS011;63119;51.788;8.824;2023-07-29T08:01:04;15.18;;;8.50;;
74612;SDS011;63119;51.788;8.824;2023-07-29T08:03:31;16.60;;;8.35;;
74612;SDS011;63119;51.788;8.824;2023-07-29T08:05:56;14.00;;;7.43;;
74612;SDS011;63119;51.788;8.824;2023-07-29T08:08:22;13.32;;;8.55;;
74612;SDS011;63119;51.788;8.824;2023-07-29T08:10:47;12.60;;;8.02;;
74612;SDS011;63119;51.788;8.824;2023-07-29T08:13:12;12.13;;;7.77;;
74612;SDS011;63119;51.788;8.824;2023-07-29T08:15:38;11.63;;;7.97;;
74612;SDS011;63119;51.788;8.824;2023-07-29T08:18:03;13.30;;;7.93;;
74612;SDS011;63119;51.788;8.824;2023-07-29T08:20:28;14.20;;;8.97;;
74612;SDS011;63119;51.788;8.824;2023-07-29T08:22:53;14.07;;;7.83;;
74612;SDS011;63119;51.788;8.824;2023-07-29T08:25:19;10.13;;;7.97;;
74612;SDS011;63119;51.788;8.824;2023-07-29T08:27:44;9.67;;;7.03;;
74612;SDS011;63119;51.788;8.824;2023-07-29T08:30:09;9.27;;;6.53;;
74612;SDS011;63119;51.788;8.824;2023-07-29T08:32:35;7.97;;;6.18;;
74612;SDS011;63119;51.788;8.824;2023-07-29T08:35:00;7.57;;;5.37;;
74612;SDS011;63119;51.788;8.824;2023-07-29T08:37:25;7.53;;;5.30;;
74612;SDS011;63119;51.788;8.824;2023-07-29T08:39:52;8.45;;;5.00;;
74612;SDS011;63119;51.788;8.824;2023-07-29T08:42:19;5.95;;;4.25;;
74612;SDS011;63119;51.788;8.824;2023-07-29T08:44:44;16.17;;;5.97;;
74612;SDS011;63119;51.788;8.824;2023-07-29T08:47:13;8.50;;;5.03;;
74612;SDS011;63119;51.788;8.824;2023-07-29T08:49:38;6.30;;;4.77;;
74612;SDS011;63119;51.788;8.824;2023-07-29T08:52:04;10.05;;;4.68;;
74612;SDS011;63119;51.788;8.824;2023-07-29T08:54:31;7.57;;;5.25;;
74612;SDS011;63119;51.788;8.824;2023-07-29T08:56:56;6.37;;;4.83;;
74612;SDS011;63119;51.788;8.824;2023-07-29T08:59:22;7.85;;;5.35;;
74612;SDS011;63119;51.788;8.824;2023-07-29T09:01:48;9.35;;;5.90;;
74612;SDS011;63119;51.788;8.824;2023-07-29T09:04:14;6.60;;;5.50;;
74612;SDS011;63119;51.788;8.824;2023-07-29T09:06:39;9.60;;;5.97;;
74612;SDS011;63119;51.788;8.824;2023-07-29T09:09:08;9.25;;;5.53;;
74612;SDS011;63119;51.788;8.824;2023-07-29T09:11:34;10.30;;;5.50;;
74612;SDS011;63119;51.788;8.824;2023-07-29T09:13:59;7.15;;;5.68;;
74612;SDS011;63119;51.788;8.824;2023-07-29T09:16:25;6.37;;;4.33;;
74612;SDS011;63119;51.788;8.824;2023-07-29T09:18:51;6.50;;;4.40;;
74612;SDS011;63119;51.788;8.824;2023-07-29T09:21:17;5.63;;;3.95;;
74612;SDS011;63119;51.788;8.824;2023-07-29T09:23:43;4.78;;;3.50;;
74612;SDS011;63119;51.788;8.824;2023-07-29T09:26:09;6.22;;;3.50;;
74612;SDS011;63119;51.788;8.824;2023-07-29T09:28:36;2.97;;;2.10;;
74612;SDS011;63119;51.788;8.824;2023-07-29T09:31:02;3.33;;;1.90;;
74612;SDS011;63119;51.788;8.824;2023-07-29T09:33:29;2.35;;;1.60;;
74612;SDS011;63119;51.788;8.824;2023-07-29T09:35:56;3.40;;;1.83;;
74612;SDS011;63119;51.788;8.824;2023-07-29T09:38:26;2.90;;;2.03;;
74612;SDS011;63119;51.788;8.824;2023-07-29T09:40:54;3.55;;;1.85;;
74612;SDS011;63119;51.788;8.824;2023-07-29T09:43:24;3.65;;;1.90;;
74612;SDS011;63119;51.788;8.824;2023-07-29T09:45:51;2.70;;;2.00;;
74612;SDS011;63119;51.788;8.824;2023-07-29T09:48:17;3.95;;;2.30;;
74612;SDS011;63119;51.788;8.824;2023-07-29T09:50:47;3.10;;;2.42;;
74612;SDS011;63119;51.788;8.824;2023-07-29T09:53:13;2.92;;;2.10;;
74612;SDS011;63119;51.788;8.824;2023-07-29T09:55:39;3.10;;;2.25;;
74612;SDS011;63119;51.788;8.824;2023-07-29T09:58:04;4.47;;;2.47;;
74612;SDS011;63119;51.788;8.824;2023-07-29T10:00:33;2.80;;;2.15;;
74612;SDS011;63119;51.788;8.824;2023-07-29T10:02:58;4.20;;;2.20;;
74612;SDS011;63119;51.788;8.824;2023-07-29T10:05:27;3.22;;;1.80;;
74612;SDS011;63119;51.788;8.824;2023-07-29T10:07:53;3.38;;;2.00;;
74612;SDS011;63119;51.788;8.824;2023-07-29T10:10:19;2.00;;;1.80;;
74612;SDS011;63119;51.788;8.824;2023-07-29T10:12:45;2.80;;;1.95;;
74612;SDS011;63119;51.788;8.824;2023-07-29T10:15:10;2.75;;;1.65;;
74612;SDS011;63119;51.788;8.824;2023-07-29T10:17:36;3.77;;;1.47;;
74612;SDS011;63119;51.788;8.824;2023-07-29T10:20:03;3.50;;;1.73;;
74612;SDS011;63119;51.788;8.824;2023-07-29T10:22:42;3.05;;;1.40;;
74612;SDS011;63119;51.788;8.824;2023-07-29T10:25:17;3.00;;;1.33;;
74612;SDS011;63119;51.788;8.824;2023-07-29T10:27:49;2.13;;;1.23;;
74612;SDS011;63119;51.788;8.824;2023-07-29T10:30:18;2.58;;;1.40;;
74612;SDS011;63119;51.788;8.824;2023-07-29T10:32:44;1.93;;;1.10;;
74612;SDS011;63119;51.788;8.824;2023-07-29T10:35:11;1.98;;;1.10;;
74612;SDS011;63119;51.788;8.824;2023-07-29T10:37:37;1.52;;;1.00;;
74612;SDS011;63119;51.788;8.824;2023-07-29T10:40:05;1.58;;;1.10;;
74612;SDS011;63119;51.788;8.824;2023-07-29T10:42:32;3.95;;;1.00;;
74612;SDS011;63119;51.788;8.824;2023-07-29T10:44:57;3.03;;;1.10;;
74612;SDS011;63119;51.788;8.824;2023-07-29T10:49:55;1.90;;;0.80;;
74612;SDS011;63119;51.788;8.824;2023-07-29T10:52:28;1.98;;;1.08;;
74612;SDS011;63119;51.788;8.824;2023-07-29T10:54:53;1.80;;;1.02;;
74612;SDS011;63119;51.788;8.824;2023-07-29T10:57:30;2.83;;;0.80;;
74612;SDS011;63119;51.788;8.824;2023-07-29T10:59:57;1.55;;;0.90;;
74612;SDS011;63119;51.788;8.824;2023-07-29T11:02:28;2.63;;;0.90;;
74612;SDS011;63119;51.788;8.824;2023-07-29T11:04:55;1.20;;;0.80;;
74612;SDS011;63119;51.788;8.824;2023-07-29T11:07:21;2.53;;;0.80;;
74612;SDS011;63119;51.788;8.824;2023-07-29T11:09:51;1.67;;;0.93;;
74612;SDS011;63119;51.788;8.824;2023-07-29T11:20:11;1.13;;;0.88;;
74612;SDS011;63119;51.788;8.824;2023-07-29T11:22:38;1.15;;;0.90;;
74612;SDS011;63119;51.788;8.824;2023-07-29T11:25:04;1.35;;;0.90;;
74612;SDS011;63119;51.788;8.824;2023-07-29T11:27:31;1.80;;;0.90;;
74612;SDS011;63119;51.788;8.824;2023-07-29T11:30:00;3.07;;;0.97;;
74612;SDS011;63119;51.788;8.824;2023-07-29T11:32:26;1.23;;;1.00;;
74612;SDS011;63119;51.788;8.824;2023-07-29T11:34:52;1.48;;;1.00;;
74612;SDS011;63119;51.788;8.824;2023-07-29T11:37:17;1.38;;;1.15;;
74612;SDS011;63119;51.788;8.824;2023-07-29T11:39:46;1.67;;;1.00;;
74612;SDS011;63119;51.788;8.824;2023-07-29T11:42:11;1.58;;;0.90;;
74612;SDS011;63119;51.788;8.824;2023-07-29T11:44:37;3.38;;;1.17;;
74612;SDS011;63119;51.788;8.824;2023-07-29T11:47:06;2.10;;;1.13;;
74612;SDS011;63119;51.788;8.824;2023-07-29T11:49:33;1.45;;;0.90;;
74612;SDS011;63119;51.788;8.824;2023-07-29T11:51:59;1.58;;;1.10;;
74612;SDS011;63119;51.788;8.824;2023-07-29T11:54:24;1.50;;;0.90;;
74612;SDS011;63119;51.788;8.824;2023-07-29T11:56:50;1.92;;;1.20;;
74612;SDS011;63119;51.788;8.824;2023-07-29T11:59:15;1.45;;;0.82;;
74612;SDS011;63119;51.788;8.824;2023-07-29T12:01:41;2.33;;;1.17;;
74612;SDS011;63119;51.788;8.824;2023-07-29T12:04:06;1.23;;;0.90;;
74612;SDS011;63119;51.788;8.824;2023-07-29T12:06:31;2.60;;;1.00;;
74612;SDS011;63119;51.788;8.824;2023-07-29T12:08:57;4.25;;;1.05;;
74612;SDS011;63119;51.788;8.824;2023-07-29T12:11:22;2.20;;;1.10;;
74612;SDS011;63119;51.788;8.824;2023-07-29T12:13:48;1.67;;;1.17;;
74612;SDS011;63119;51.788;8.824;2023-07-29T12:16:16;2.53;;;1.15;;
74612;SDS011;63119;51.788;8.824;2023-07-29T12:18:43;2.63;;;1.02;;
74612;SDS011;63119;51.788;8.824;2023-07-29T12:21:08;1.73;;;1.20;;
74612;SDS011;63119;51.788;8.824;2023-07-29T12:23:33;2.10;;;1.50;;
74612;SDS011;63119;51.788;8.824;2023-07-29T12:25:59;2.13;;;1.20;;
74612;SDS011;63119;51.788;8.824;2023-07-29T12:28:25;2.83;;;1.23;;
74612;SDS011;63119;51.788;8.824;2023-07-29T12:30:54;2.50;;;1.50;;
74612;SDS011;63119;51.788;8.824;2023-07-29T12:33:34;2.05;;;1.35;;
74612;SDS011;63119;51.788;8.824;2023-07-29T12:36:01;3.83;;;1.75;;
74612;SDS011;63119;51.788;8.824;2023-07-29T12:38:26;2.55;;;1.40;;
74612;SDS011;63119;51.788;8.824;2023-07-29T12:40:53;2.33;;;1.60;;
74612;SDS011;63119;51.788;8.824;2023-07-29T12:43:18;1.75;;;1.40;;
74612;SDS011;63119;51.788;8.824;2023-07-29T12:45:44;1.53;;;1.30;;
74612;SDS011;63119;51.788;8.824;2023-07-29T12:48:09;2.13;;;1.20;;
74612;SDS011;63119;51.788;8.824;2023-07-29T12:50:35;3.20;;;1.60;;
74612;SDS011;63119;51.788;8.824;2023-07-29T12:53:01;3.35;;;1.60;;
74612;SDS011;63119;51.788;8.824;2023-07-29T12:55:26;4.00;;;1.70;;
74612;SDS011;63119;51.788;8.824;2023-07-29T12:57:52;2.10;;;1.43;;
74612;SDS011;63119;51.788;8.824;2023-07-29T13:00:17;4.13;;;1.50;;
74612;SDS011;63119;51.788;8.824;2023-07-29T13:02:43;4.13;;;1.60;;
74612;SDS011;63119;51.788;8.824;2023-07-29T13:05:09;2.03;;;1.50;;
74612;SDS011;63119;51.788;8.824;2023-07-29T13:07:41;3.05;;;1.48;;
74612;SDS011;63119;51.788;8.824;2023-07-29T13:10:08;2.13;;;1.70;;
74612;SDS011;63119;51.788;8.824;2023-07-29T13:12:34;3.95;;;1.55;;
74612;SDS011;63119;51.788;8.824;2023-07-29T13:14:59;2.53;;;1.60;;
74612;SDS011;63119;51.788;8.824;2023-07-29T13:17:25;1.80;;;1.33;;
74612;SDS011;63119;51.788;8.824;2023-07-29T13:19:50;2.30;;;1.30;;
74612;SDS011;63119;51.788;8.824;2023-07-29T13:22:16;2.95;;;1.70;;
74612;SDS011;63119;51.788;8.824;2023-07-29T13:24:41;4.72;;;1.88;;
74612;SDS011;63119;51.788;8.824;2023-07-29T13:27:06;1.80;;;1.30;;
74612;SDS011;63119;51.788;8.824;2023-07-29T13:29:32;2.40;;;1.60;;
74612;SDS011;63119;51.788;8.824;2023-07-29T13:31:57;1.92;;;1.30;;
74612;SDS011;63119;51.788;8.824;2023-07-29T13:34:22;2.43;;;1.43;;
74612;SDS011;63119;51.788;8.824;2023-07-29T13:36:48;2.50;;;1.60;;
74612;SDS011;63119;51.788;8.824;2023-07-29T13:39:13;5.28;;;1.42;;
74612;SDS011;63119;51.788;8.824;2023-07-29T13:41:38;2.40;;;1.40;;
74612;SDS011;63119;51.788;8.824;2023-07-29T13:44:04;2.10;;;1.30;;
74612;SDS011;63119;51.788;8.824;2023-07-29T13:46:29;2.20;;;1.30;;
74612;SDS011;63119;51.788;8.824;2023-07-29T13:48:54;2.93;;;1.40;;
74612;SDS011;63119;51.788;8.824;2023-07-29T13:51:19;3.63;;;1.33;;
74612;SDS011;63119;51.788;8.824;2023-07-29T13:53:44;2.23;;;1.57;;
74612;SDS011;63119;51.788;8.824;2023-07-29T13:56:10;3.97;;;2.00;;
74612;SDS011;63119;51.788;8.824;2023-07-29T13:58:35;3.83;;;1.83;;
74612;SDS011;63119;51.788;8.824;2023-07-29T14:01:00;4.47;;;1.40;;
74612;SDS011;63119;51.788;8.824;2023-07-29T14:03:25;2.17;;;1.47;;
74612;SDS011;63119;51.788;8.824;2023-07-29T14:05:51;3.33;;;1.67;;
74612;SDS011;63119;51.788;8.824;2023-07-29T14:08:16;1.37;;;1.10;;
74612;SDS011;63119;51.788;8.824;2023-07-29T14:10:41;1.70;;;1.20;;
74612;SDS011;63119;51.788;8.824;2023-07-29T14:13:06;2.00;;;1.13;;
74612;SDS011;63119;51.788;8.824;2023-07-29T14:15:32;4.43;;;1.57;;
74612;SDS011;63119;51.788;8.824;2023-07-29T14:17:57;3.57;;;1.40;;
74612;SDS011;63119;51.788;8.824;2023-07-29T14:20:23;2.25;;;1.30;;
74612;SDS011;63119;51.788;8.824;2023-07-29T14:22:48;3.20;;;1.70;;
74612;SDS011;63119;51.788;8.824;2023-07-29T14:25:14;2.53;;;1.63;;
74612;SDS011;63119;51.788;8.824;2023-07-29T14:27:40;3.72;;;2.20;;
74612;SDS011;63119;51.788;8.824;2023-07-29T14:30:05;4.33;;;2.53;;
74612;SDS011;63119;51.788;8.824;2023-07-29T14:32:31;3.20;;;2.40;;
74612;SDS011;63119;51.788;8.824;2023-07-29T14:34:57;5.70;;;1.98;;
74612;SDS011;63119;51.788;8.824;2023-07-29T14:37:22;3.08;;;2.22;;
74612;SDS011;63119;51.788;8.824;2023-07-29T14:39:47;2.90;;;2.10;;
74612;SDS011;63119;51.788;8.824;2023-07-29T14:42:13;3.53;;;2.20;;
74612;SDS011;63119;51.788;8.824;2023-07-29T14:44:39;2.95;;;2.25;;
74612;SDS011;63119;51.788;8.824;2023-07-29T14:47:05;3.28;;;1.85;;
74612;SDS011;63119;51.788;8.824;2023-07-29T14:49:31;2.33;;;1.85;;
74612;SDS011;63119;51.788;8.824;2023-07-29T14:51:56;3.90;;;1.90;;
74612;SDS011;63119;51.788;8.824;2023-07-29T14:54:21;4.87;;;2.40;;
74612;SDS011;63119;51.788;8.824;2023-07-29T14:56:46;3.57;;;1.90;;
74612;SDS011;63119;51.788;8.824;2023-07-29T14:59:12;3.13;;;1.90;;